To NAV CANADA Home Page Login to a new session Search on AWWS site Disclaimer Vers la page française équivalente Tips FAQ What's new on the site To the Forecasts and Observations / NOTAM section To "File a Flight Plan" website Publications and other links Update of the User's profile FIC Telephone Numbers My Weather Data Folder Route Weather Data Regional Weather Data Local Weather Data To the Forecasts and Observations / NOTAM section
Request Generated 04/24/2019 at 16:29:14 UTC . Weather information available at that time is displayed.

METAR/TAF

MACKENZIE/BC    (show WxCam)

METAR CYZY 241600Z AUTO 28008G17KT 250V310 9SM CLR 02/M10 A3016 RMK SLP243=
METAR CYZY 241500Z AUTO 29008KT 9SM OVC070 00/M10 A3015 RMK SLP239=
METAR CYZY 241400Z AUTO 30004KT 270V030 9SM FEW095 00/M10 A3012 RMK SLP228=

TAF CYZY 241439Z 2415/2503 28006KT P6SM SCT030 SCT100 TEMPO 2415/2420
SCT040 BKN100
FM242000 25010KT P6SM SCT060 TEMPO 2420/2503 BKN060
RMK FCST BASED ON AUTO OBS. NXT FCST BY 241900Z=
Your time UTC time
Weather data provided by Environment Canada and NAV CANADA